Time;durP1;ratioP1;P1;durP2;ratioP2;P2;SDS_P1;SDS_P2;PMS_P1;PMS_P2;Temp;Humidity;BMP_temperature;BMP_pressure;BME280_temperature;BME280_humidity;BME280_pressure;Samples;Min_cycle;Max_cycle;Signal;HPM_P1;HPM_P2
2022/10/09 00:02:39;;;;;;;9.10;3.85;;;;;;;5.28;100.00;102353.53;12942416;22;20015;-86
2022/10/09 00:07:39;;;;;;;11.68;5.57;;;;;;;4.55;100.00;102211.16;12950359;22;19999;-85
2022/10/09 00:12:42;;;;;;;13.48;4.47;;;;;;;4.92;100.00;102304.16;12940616;22;20079;-86
2022/10/09 00:17:55;;;;;;;12.32;4.05;;;;;;;5.00;100.00;102354.09;12858096;22;20014;-86
2022/10/09 00:29:25;;;;;;;8.77;3.40;;;;;;;5.97;100.00;102456.44;12530404;23;20028;-86
2022/10/09 00:34:25;;;;;;;9.38;3.65;;;;;;;5.75;100.00;102489.06;12745794;22;20002;-89
2022/10/09 00:39:26;;;;;;;12.20;3.22;;;;;;;5.31;100.00;102385.91;12916810;22;20094;-89
2022/10/09 00:45:05;;;;;;;6.25;2.65;;;;;;;4.01;100.00;102225.63;12895204;22;20004;-90
2022/10/09 00:50:22;;;;;;;7.40;2.80;;;;;;;4.14;100.00;102246.00;12623435;23;20040;-89
2022/10/09 00:56:28;;;;;;;10.60;3.05;;;;;;;5.66;100.00;102539.34;12271490;23;20655;-88
2022/10/09 01:01:51;;;;;;;;;;;;;;;;;;;;;
2022/10/09 01:06:59;;;;;;;11.32;4.30;;;;;;;4.74;100.00;102391.78;12276561;23;20007;-89
2022/10/09 01:12:18;;;;;;;10.90;3.78;;;;;;;4.24;100.00;102317.50;12553623;23;20006;-89
2022/10/09 01:17:39;;;;;;;9.93;3.83;;;;;;;4.79;100.00;102364.78;12601221;23;20336;-90
2022/10/09 01:23:04;;;;;;;15.02;4.38;;;;;;;4.03;100.00;102301.72;12771702;23;20017;-89
2022/10/09 01:28:05;;;;;;;12.02;5.05;;;;;;;4.13;100.00;102291.47;12860131;22;20019;-89
2022/10/09 01:33:20;;;;;;;12.40;6.32;;;;;;;3.86;100.00;102238.28;12701638;23;20486;-90
2022/10/09 01:38:44;;;;;;;16.50;5.47;;;;;;;3.67;100.00;102185.06;12693079;22;20018;-89
2022/10/09 01:50:33;;;;;;;21.25;7.40;;;;;;;3.46;100.00;102143.97;12468205;23;20021;-89
2022/10/09 02:02:44;;;;;;;13.80;7.55;;;;;;;4.06;100.00;102259.66;12680629;23;20522;-89
2022/10/09 02:08:05;;;;;;;14.75;7.68;;;;;;;3.63;100.00;102187.28;12632466;23;20092;-89
2022/10/09 02:13:48;;;;;;;15.45;8.15;;;;;;;4.20;100.00;102267.94;12602715;23;20024;-89
2022/10/09 02:19:08;;;;;;;19.00;8.70;;;;;;;4.59;100.00;102334.41;12487044;23;20069;-89
2022/10/09 02:36:56;;;;;;;15.25;8.35;;;;;;;5.18;100.00;102462.13;12269496;23;20022;-88
2022/10/09 02:41:56;;;;;;;17.38;7.95;;;;;;;3.51;100.00;102213.19;12690465;23;20014;-88
2022/10/09 02:46:57;;;;;;;22.23;9.63;;;;;;;3.12;100.00;102151.41;12855496;23;20055;-89
2022/10/09 02:51:57;;;;;;;16.48;8.10;;;;;;;3.81;100.00;102252.44;12863794;22;20026;-89
2022/10/09 02:56:58;;;;;;;18.98;8.52;;;;;;;2.55;100.00;102042.72;12918906;22;20043;-89
2022/10/09 03:01:58;;;;;;;19.35;8.50;;;;;;;3.60;100.00;102277.53;12919777;22;20008;-89
2022/10/09 03:06:59;;;;;;;16.52;7.82;;;;;;;3.79;100.00;102269.97;12945845;22;20419;-89
2022/10/09 03:11:59;;;;;;;17.63;8.57;;;;;;;3.91;100.00;102338.59;12917973;22;20414;-89
2022/10/09 03:17:00;;;;;;;16.55;7.70;;;;;;;3.09;100.00;102187.09;12917790;22;20000;-89
2022/10/09 03:22:00;;;;;;;23.10;10.48;;;;;;;3.10;100.00;102194.25;12939144;22;20026;-90
2022/10/09 03:27:01;;;;;;;15.35;8.52;;;;;;;2.78;100.00;102130.69;12915733;22;20008;-89
2022/10/09 03:32:01;;;;;;;14.82;7.93;;;;;;;3.40;100.00;102233.47;12913748;22;20327;-89
2022/10/09 03:37:04;;;;;;;13.40;7.88;;;;;;;2.98;100.00;102190.19;12910565;22;20042;-89
2022/10/09 03:42:05;;;;;;;19.05;8.00;;;;;;;3.42;100.00;102230.59;12902682;22;20046;-89
2022/10/09 03:47:06;;;;;;;13.43;7.00;;;;;;;3.53;100.00;102292.84;12925950;22;20039;-89
2022/10/09 03:52:06;;;;;;;11.63;6.78;;;;;;;2.94;100.00;102200.56;12912676;22;20023;-89
2022/10/09 03:57:06;;;;;;;14.30;7.47;;;;;;;4.22;100.00;102440.34;12938372;22;20334;-86
2022/10/09 04:02:07;;;;;;;21.70;8.20;;;;;;;3.14;100.00;102244.59;12965241;22;20034;-85
2022/10/09 04:07:07;;;;;;;16.73;8.02;;;;;;;4.03;100.00;102369.84;12964639;22;20346;-86
2022/10/09 04:19:50;;;;;;;18.05;8.25;;;;;;;4.61;100.00;102455.06;12452543;23;20018;-86
2022/10/09 05:16:52;;;;;;;18.50;10.52;;;;;;;4.21;100.00;102448.69;13194629;22;1429253;-88
2022/10/09 05:21:53;;;;;;;17.67;9.65;;;;;;;2.55;100.00;102170.50;12887671;22;20005;-88
2022/10/09 05:26:54;;;;;;;20.10;9.75;;;;;;;2.96;100.00;102249.38;12857893;22;20013;-88
2022/10/09 05:31:54;;;;;;;18.70;10.60;;;;;;;3.78;100.00;102415.38;12807848;22;20446;-89
2022/10/09 05:36:55;;;;;;;20.65;10.88;;;;;;;3.84;100.00;102410.13;12867949;22;20020;-89
2022/10/09 05:41:55;;;;;;;21.10;11.15;;;;;;;3.03;100.00;102266.69;12843938;22;20003;-89
2022/10/09 05:46:56;;;;;;;21.33;11.20;;;;;;;2.27;100.00;102130.03;12832815;22;20024;-89
2022/10/09 05:51:56;;;;;;;18.73;11.27;;;;;;;2.35;100.00;102130.03;12807510;22;20423;-88
2022/10/09 05:56:57;;;;;;;19.75;10.77;;;;;;;3.12;100.00;102294.75;12832184;22;20060;-89
2022/10/09 06:01:58;;;;;;;23.10;10.85;;;;;;;3.99;100.00;102456.59;12821585;22;20254;-89
2022/10/09 06:06:59;;;;;;;17.25;10.60;;;;;;;2.94;100.00;102227.78;12792867;22;20024;-89
2022/10/09 06:11:59;;;;;;;19.80;11.38;;;;;;;2.79;100.00;102196.81;12853010;22;20012;-89
2022/10/09 06:17:00;;;;;;;23.20;11.93;;;;;;;3.47;100.00;102303.56;12880803;22;20346;-89
2022/10/09 06:22:01;;;;;;;26.42;11.50;;;;;;;3.37;100.00;102291.00;12980080;22;20356;-89
2022/10/09 06:27:01;;;;;;;21.27;11.85;;;;;;;3.30;100.00;102249.16;12978801;22;20094;-89
2022/10/09 06:32:02;;;;;;;24.13;12.35;;;;;;;3.68;100.00;102327.53;12954772;22;19999;-89
2022/10/09 06:37:02;;;;;;;20.52;12.68;;;;;;;4.01;100.00;102355.56;12981762;22;20058;-88
2022/10/09 06:42:03;;;;;;;20.83;12.15;;;;;;;3.29;100.00;102241.16;12980404;22;20003;-88
2022/10/09 06:47:04;;;;;;;24.35;12.55;;;;;;;3.59;100.00;102243.13;12967208;22;20070;-89
2022/10/09 06:52:04;;;;;;;25.80;14.55;;;;;;;3.53;100.00;102221.19;12980885;22;20004;-88
2022/10/09 06:57:07;;;;;;;22.17;13.48;;;;;;;3.79;100.00;102224.53;12981448;22;20011;-88
2022/10/09 07:02:08;;;;;;;21.38;14.07;;;;;;;3.50;100.00;102187.00;12954658;22;20008;-88
2022/10/09 07:07:08;;;;;;;27.60;16.10;;;;;;;4.02;100.00;102256.44;12977491;22;20457;-88
2022/10/09 07:12:52;;;;;;;28.08;14.93;;;;;;;5.00;100.00;102369.59;12784173;22;20063;-89
2022/10/09 07:17:54;;;;;;;23.98;16.15;;;;;;;3.94;100.00;102191.91;12940855;22;20023;-90
2022/10/09 07:22:57;;;;;;;34.78;17.35;;;;;;;5.42;100.00;102442.88;12881662;22;20419;-91
2022/10/09 07:27:58;;;;;;;27.45;17.95;;;;;;;4.93;100.00;102320.34;12953019;22;20102;-91
2022/10/09 07:32:59;;;;;;;35.55;17.75;;;;;;;4.52;100.00;102251.56;12950624;22;20059;-92
2022/10/09 07:37:59;;;;;;;35.88;17.60;;;;;;;5.38;100.00;102381.44;12965891;22;20333;-91
2022/10/09 07:43:00;;;;;;;32.88;18.85;;;;;;;5.21;100.00;102330.72;12908386;22;20445;-90
2022/10/09 07:48:04;;;;;;;33.63;16.77;;;;;;;5.84;100.00;102403.22;12962004;22;20417;-91
2022/10/09 07:53:04;;;;;;;29.70;19.83;;;;;;;5.02;100.00;102253.75;12773110;22;19999;-91
2022/10/09 07:58:05;;;;;;;29.77;18.42;;;;;;;5.49;100.00;102279.09;12882702;22;20090;-90
2022/10/09 08:03:06;;;;;;;28.35;18.27;;;;;;;6.38;100.00;102439.63;12946748;22;20157;-91
2022/10/09 08:08:09;;;;;;;31.30;17.50;;;;;;;7.22;100.00;102557.03;12917357;22;20011;-90
2022/10/09 08:13:13;;;;;;;29.75;17.67;;;;;;;6.60;100.00;102386.69;12914851;22;20006;-91
2022/10/09 08:18:14;;;;;;;30.35;16.50;;;;;;;6.85;100.00;102416.50;12888824;22;20465;-90
2022/10/09 08:23:32;;;;;;;34.90;18.42;;;;;;;6.66;100.00;102358.56;12935140;22;20086;-88
2022/10/09 08:28:33;;;;;;;29.35;16.58;;;;;;;7.16;100.00;102407.16;12905496;22;20015;-88
2022/10/09 08:33:33;;;;;;;27.15;16.60;;;;;;;6.74;100.00;102291.94;12873306;22;20466;-89
2022/10/09 08:38:34;;;;;;;24.17;15.25;;;;;;;6.79;100.00;102263.97;12901153;22;20007;-88
2022/10/09 08:43:46;;;;;;;26.60;14.77;;;;;;;7.86;100.00;102439.25;12920059;22;20065;-90
2022/10/09 08:55:15;;;;;;;26.05;11.27;;;;;;;8.04;100.00;102352.88;12865433;22;20026;-89
2022/10/09 09:00:21;;;;;;;22.15;11.52;;;;;;;8.07;100.00;102286.66;12941300;22;20045;-89
2022/10/09 09:18:45;;;;;;;14.80;7.65;;;;;;;10.32;100.00;102463.22;12694017;23;20030;-89
2022/10/09 09:23:47;;;;;;;10.30;6.47;;;;;;;9.24;100.00;102215.97;12754416;22;20095;-89
2022/10/09 09:35:48;;;;;;;;;;;;;;;;;;;;;
2022/10/09 09:42:10;;;;;;;12.55;4.13;;;;;;;12.06;100.00;102430.97;12558217;23;20018;-88
2022/10/09 09:54:06;;;;;;;6.13;3.35;;;;;;;11.19;100.00;102210.19;12960950;22;20348;-90
2022/10/09 09:59:07;;;;;;;9.70;2.78;;;;;;;11.73;100.00;102245.53;12809091;22;20011;-91
2022/10/09 10:04:18;;;;;;;10.05;3.20;;;;;;;11.96;100.00;102253.16;12814899;22;20053;-92
2022/10/09 10:09:19;;;;;;;7.68;3.47;;;;;;;12.24;100.00;102255.38;12842253;22;20064;-92
2022/10/09 10:14:20;;;;;;;10.65;2.88;;;;;;;12.74;100.00;102301.25;12852447;22;20060;-92
2022/10/09 10:19:29;;;;;;;9.32;3.63;;;;;;;13.84;100.00;102386.56;12776737;22;20015;-90
2022/10/09 10:24:44;;;;;;;9.68;3.03;;;;;;;12.23;100.00;102121.97;12888956;22;20000;-90
2022/10/09 10:29:45;;;;;;;14.88;3.30;;;;;;;12.93;100.00;102208.88;12877074;22;20094;-91
2022/10/09 10:35:16;;;;;;;9.00;2.72;;;;;;;13.11;100.00;102208.81;12841917;22;20007;-90
2022/10/09 10:40:33;;;;;;;9.05;2.50;;;;;;;14.33;100.00;102389.09;12848662;22;20074;-90
2022/10/09 10:45:43;;;;;;;9.88;2.70;;;;;;;13.05;100.00;102182.09;12808490;22;20027;-91
2022/10/09 10:51:15;;;;;;;14.30;4.32;;;;;;;14.29;100.00;102354.66;12886663;22;20328;-91
2022/10/09 10:56:37;;;;;;;9.02;2.83;;;;;;;14.78;100.00;102340.44;12828732;22;20008;-91
2022/10/09 11:01:46;;;;;;;7.07;2.17;;;;;;;14.10;100.00;102207.19;12874534;22;20026;-90
2022/10/09 11:06:52;;;;;;;10.30;3.45;;;;;;;14.99;100.00;102339.78;12836163;22;20079;-90
2022/10/09 11:12:19;;;;;;;7.13;3.03;;;;;;;14.67;100.00;102240.44;12868790;22;20043;-89
2022/10/09 11:17:31;;;;;;;9.27;1.52;;;;;;;15.19;100.00;102235.81;12792629;23;20019;-90
2022/10/09 11:22:57;;;;;;;8.00;1.90;;;;;;;14.83;100.00;102146.47;12833878;22;20028;-90
2022/10/09 11:28:14;;;;;;;9.18;1.98;;;;;;;15.29;100.00;102147.19;12873764;22;20019;-89
2022/10/09 11:33:35;;;;;;;6.45;1.25;;;;;;;16.44;100.00;102285.41;12853610;22;20019;-90
2022/10/09 11:38:37;;;;;;;9.13;1.52;;;;;;;15.34;100.00;102111.22;12848048;22;20070;-89
2022/10/09 11:43:58;;;;;;;8.23;1.95;;;;;;;16.40;100.00;102273.13;12857778;22;20054;-89
2022/10/09 11:49:23;;;;;;;5.25;1.30;;;;;;;14.75;100.00;101947.31;12909248;22;20496;-88
2022/10/09 11:54:26;;;;;;;7.60;1.30;;;;;;;16.13;100.00;102105.25;12870197;22;20014;-91
2022/10/09 11:59:30;;;;;;;9.02;1.13;;;;;;;16.26;100.00;102028.13;12815528;22;20066;-90
2022/10/09 12:04:32;;;;;;;8.50;2.25;;;;;;;17.38;100.00;102005.75;12788549;23;20001;-89
2022/10/09 12:09:35;;;;;;;7.47;1.85;;;;;;;18.38;93.50;102067.88;12788154;23;20390;-90
2022/10/09 12:14:36;;;;;;;6.00;1.45;;;;;;;18.30;91.28;101997.59;12843509;23;20016;-89
2022/10/09 12:19:38;;;;;;;4.95;1.08;;;;;;;19.89;87.18;102094.06;12808522;23;20327;-90
2022/10/09 12:24:42;;;;;;;7.85;1.45;;;;;;;20.69;81.54;102160.97;12794708;23;20082;-90
2022/10/09 12:29:44;;;;;;;6.05;1.10;;;;;;;20.29;79.85;102039.81;12838811;23;20016;-88
2022/10/09 12:34:46;;;;;;;5.80;1.27;;;;;;;20.10;76.74;101963.38;12837733;23;20147;-87
2022/10/09 12:39:48;;;;;;;4.57;1.33;;;;;;;20.29;76.50;101981.09;12837342;23;20019;-87
2022/10/09 12:44:49;;;;;;;4.60;1.25;;;;;;;20.69;74.33;102077.03;12861306;23;20036;-87
2022/10/09 12:49:57;;;;;;;4.93;1.30;;;;;;;20.35;72.52;101942.75;12823774;23;20025;-87
2022/10/09 12:54:57;;;;;;;6.05;1.00;;;;;;;20.79;68.11;101859.75;12838838;23;20084;-87
2022/10/09 13:00:00;;;;;;;4.20;1.00;;;;;;;21.47;68.16;101991.03;12823682;23;20036;-87
2022/10/09 13:05:01;;;;;;;4.07;1.00;;;;;;;21.31;67.39;101875.56;12837812;23;20032;-87
2022/10/09 13:10:07;;;;;;;7.72;1.20;;;;;;;22.03;66.77;101980.13;12852618;23;20036;-88
2022/10/09 13:15:32;;;;;;;8.40;1.30;;;;;;;21.64;65.65;101855.16;12841153;23;20316;-87
2022/10/09 13:20:33;;;;;;;6.25;0.85;;;;;;;21.79;64.09;101885.75;12827891;23;20016;-87
2022/10/09 13:25:35;;;;;;;6.72;1.23;;;;;;;21.68;62.50;101833.78;12865598;23;20005;-87
2022/10/09 13:30:36;;;;;;;4.00;1.73;;;;;;;21.60;61.38;101821.34;12874974;23;20012;-88
2022/10/09 13:35:36;;;;;;;4.80;0.73;;;;;;;23.42;60.72;102015.75;12840666;23;20383;-87
2022/10/09 13:40:37;;;;;;;2.10;0.77;;;;;;;22.74;58.70;101838.53;12815792;23;20050;-87
2022/10/09 13:45:37;;;;;;;4.15;1.67;;;;;;;22.77;59.29;101871.56;12839929;23;20024;-86
2022/10/09 13:50:38;;;;;;;3.83;1.00;;;;;;;22.47;59.80;101957.22;12873745;22;20485;-86
2022/10/09 13:55:39;;;;;;;5.25;1.08;;;;;;;20.88;59.82;101828.00;12877184;22;20374;-85
2022/10/09 14:00:39;;;;;;;5.05;1.10;;;;;;;19.68;64.42;101774.84;12853192;22;20020;-86
2022/10/09 14:05:40;;;;;;;5.40;1.10;;;;;;;20.31;65.14;101896.91;12865602;22;20007;-86
2022/10/09 14:10:41;;;;;;;11.95;1.35;;;;;;;20.62;65.56;101900.25;12853581;22;20015;-86
2022/10/09 14:15:42;;;;;;;5.50;1.00;;;;;;;21.16;63.97;101890.59;12878182;22;20024;-86
2022/10/09 14:20:42;;;;;;;5.90;1.15;;;;;;;20.45;63.31;101774.81;12805150;22;20012;-85
2022/10/09 14:25:45;;;;;;;5.93;1.27;;;;;;;20.74;63.03;101816.72;12837371;23;20028;-86
2022/10/09 14:30:45;;;;;;;3.95;1.13;;;;;;;20.86;63.03;101847.06;12866491;23;20012;-85
2022/10/09 14:35:46;;;;;;;4.78;1.30;;;;;;;20.91;63.14;101868.56;12800547;23;20304;-86
2022/10/09 14:40:46;;;;;;;7.10;1.90;;;;;;;20.39;61.67;101819.94;12814203;22;20009;-86
2022/10/09 14:45:47;;;;;;;8.98;1.70;;;;;;;18.95;62.42;101702.03;12815110;23;20020;-85
2022/10/09 14:50:48;;;;;;;6.57;1.38;;;;;;;17.58;65.95;101736.88;12811160;23;20013;-87
2022/10/09 14:55:48;;;;;;;8.38;1.60;;;;;;;17.08;69.86;101778.34;12814156;22;20035;-86
2022/10/09 15:00:49;;;;;;;5.93;1.60;;;;;;;16.33;72.75;101790.59;12814647;23;20382;-85
2022/10/09 15:05:49;;;;;;;6.60;1.20;;;;;;;15.31;75.16;101679.72;12814998;23;20036;-88
2022/10/09 15:10:50;;;;;;;3.88;1.08;;;;;;;15.60;75.64;101782.06;12813897;23;20016;-87
2022/10/09 15:15:50;;;;;;;6.18;1.02;;;;;;;14.35;75.74;101629.81;12818077;22;20447;-88
2022/10/09 15:20:51;;;;;;;5.32;0.95;;;;;;;14.06;78.29;101622.56;12839284;23;20019;-87
2022/10/09 15:25:54;;;;;;;7.35;1.70;;;;;;;13.99;79.44;101701.38;12815532;23;20008;-87
2022/10/09 15:30:56;;;;;;;8.82;1.15;;;;;;;13.27;81.27;101645.00;12833416;23;20066;-87
2022/10/09 15:35:57;;;;;;;28.77;2.63;;;;;;;14.01;84.52;101776.72;12848216;23;20005;-87
2022/10/09 15:40:57;;;;;;;4.05;1.10;;;;;;;13.36;87.73;101747.78;12863584;23;20394;-87
2022/10/09 15:46:04;;;;;;;4.28;1.13;;;;;;;12.34;92.57;101564.47;12839076;23;20024;-87
2022/10/09 15:51:12;;;;;;;;;;;;;;;14.13;94.90;101899.28;12850890;23;20024;-87
2022/10/09 15:56:18;;;;;;;4.43;1.20;;;;;;;12.07;95.78;101603.72;12847977;22;19912;-86
2022/10/09 16:01:19;;;;;;;6.35;1.30;;;;;;;12.75;98.06;101722.66;12821767;23;20035;-86
2022/10/09 16:06:21;;;;;;;3.55;2.03;;;;;;;13.00;100.00;101827.28;12816152;23;20024;-86
2022/10/09 16:11:21;;;;;;;7.30;1.00;;;;;;;12.52;100.00;101768.63;12839289;23;20075;-86
2022/10/09 16:16:40;;;;;;;3.65;0.98;;;;;;;13.21;100.00;101867.22;12807324;23;20329;-87
2022/10/09 16:21:41;;;;;;;5.90;1.38;;;;;;;12.97;100.00;101900.50;12839170;23;20017;-89
2022/10/09 16:26:41;;;;;;;8.80;1.33;;;;;;;11.43;100.00;101697.50;12840653;22;20005;-86
2022/10/09 16:31:42;;;;;;;2.92;1.10;;;;;;;11.64;100.00;101770.56;12813392;23;20004;-87
2022/10/09 16:36:42;;;;;;;7.82;1.30;;;;;;;11.79;100.00;101812.28;12799924;23;20070;-90
2022/10/09 16:41:43;;;;;;;5.68;1.33;;;;;;;11.83;100.00;101843.84;12822148;23;20051;-92
2022/10/09 16:46:43;;;;;;;8.70;2.35;;;;;;;10.84;100.00;101727.75;12839141;22;20451;-89
2022/10/09 16:51:44;;;;;;;4.05;1.65;;;;;;;10.69;100.00;101775.84;12825545;22;20091;-88
2022/10/09 16:56:44;;;;;;;9.55;1.63;;;;;;;9.19;100.00;101539.88;12840653;22;20095;-89
2022/10/09 17:01:51;;;;;;;12.23;1.40;;;;;;;9.33;100.00;101637.59;12812937;22;20541;-90
2022/10/09 17:07:15;;;;;;;9.40;1.55;;;;;;;9.20;100.00;101641.31;12630698;23;20010;-88
2022/10/09 17:13:16;;;;;;;3.60;1.20;;;;;;;10.51;100.00;101872.25;12678911;23;20037;-88
2022/10/09 17:19:31;;;;;;;5.05;1.70;;;;;;;9.25;100.00;101740.38;12435773;23;20022;-87
2022/10/09 17:25:31;;;;;;;3.75;1.50;;;;;;;8.34;100.00;101623.59;12406934;23;20111;-88
2022/10/09 17:31:24;;;;;;;6.18;1.60;;;;;;;7.22;100.00;101450.50;12148069;23;20016;-88
2022/10/09 17:36:52;;;;;;;4.85;1.77;;;;;;;9.59;100.00;101864.66;12347347;23;20138;-88
2022/10/09 17:41:58;;;;;;;5.40;2.20;;;;;;;7.69;100.00;101623.75;12355491;23;20367;-88
2022/10/09 17:53:04;;;;;;;8.75;2.22;;;;;;;7.15;100.00;101561.94;12659883;22;20023;-88
2022/10/09 17:58:48;;;;;;;5.50;2.03;;;;;;;6.44;100.00;101511.53;12464379;23;20042;-87
2022/10/09 18:03:55;;;;;;;3.55;1.73;;;;;;;7.46;100.00;101660.69;12408681;23;20015;-87
2022/10/09 18:21:19;;;;;;;;;;;;;;;;;;;;;
2022/10/09 18:34:15;;;;;;;10.00;2.88;;;;;;;8.21;100.00;101841.25;12593378;23;20024;-87
2022/10/09 18:40:01;;;;;;;3.85;2.35;;;;;;;7.31;100.00;101709.38;12386329;23;20022;-87
2022/10/09 18:50:46;;;;;;;8.45;2.53;;;;;;;7.30;100.00;101778.94;12295757;23;19942;-85
2022/10/09 19:15:24;;;;;;;;;;;;;;;7.51;100.00;101798.97;12366755;23;20028;-86
2022/10/09 19:45:08;;;;;;;7.30;4.00;;;;;;;5.80;100.00;101542.97;12597604;23;20149;-88
2022/10/09 19:50:09;;;;;;;13.25;5.85;;;;;;;6.31;100.00;101648.28;12830208;22;20012;-87
2022/10/09 19:55:09;;;;;;;11.23;4.30;;;;;;;6.49;100.00;101689.56;12825225;22;20020;-86
2022/10/09 20:00:10;;;;;;;9.73;4.80;;;;;;;6.00;100.00;101608.66;12908176;22;20012;-87
2022/10/09 20:05:11;;;;;;;8.20;4.72;;;;;;;7.04;100.00;101758.69;12907934;22;20030;-86
2022/10/09 20:10:12;;;;;;;14.68;4.53;;;;;;;6.02;100.00;101573.78;12893817;22;20012;-87
2022/10/09 20:21:54;;;;;;;13.52;5.75;;;;;;;5.58;100.00;101551.34;12649164;23;20021;-86
2022/10/09 20:27:23;;;;;;;;;;;;;;;;;;;;;
2022/10/09 20:39:10;;;;;;;12.55;5.30;;;;;;;5.71;100.00;101516.91;12598653;22;20017;-87
2022/10/09 20:45:15;;;;;;;15.00;5.53;;;;;;;4.47;100.00;101356.91;12737865;22;20038;-88
2022/10/09 20:51:31;;;;;;;8.85;5.50;;;;;;;4.83;100.00;101412.00;12243429;23;20412;-88
2022/10/09 20:56:59;;;;;;;8.63;5.50;;;;;;;5.61;100.00;101518.13;12437498;23;20355;-87
2022/10/09 21:02:04;;;;;;;8.82;5.40;;;;;;;4.33;100.00;101345.91;12620527;23;20013;-88
2022/10/09 21:07:17;;;;;;;10.40;5.10;;;;;;;6.00;100.00;101614.97;12555806;23;20013;-87
2022/10/09 21:12:46;;;;;;;9.07;5.07;;;;;;;5.70;100.00;101570.69;12610562;23;20021;-86
2022/10/09 21:17:56;;;;;;;8.68;5.07;;;;;;;5.55;100.00;101507.19;12569301;23;20021;-87
2022/10/09 21:23:09;;;;;;;8.18;5.50;;;;;;;4.49;100.00;101341.16;12641209;22;20110;-87
2022/10/09 21:28:34;;;;;;;11.95;5.60;;;;;;;6.15;100.00;101614.78;12696195;23;20355;-87
2022/10/09 21:34:16;;;;;;;8.85;5.10;;;;;;;4.80;100.00;101379.69;12393606;23;20021;-87
2022/10/09 21:39:47;;;;;;;9.27;5.72;;;;;;;4.27;100.00;101315.88;12613274;23;20023;-87
2022/10/09 21:45:17;;;;;;;7.25;4.85;;;;;;;4.99;100.00;101442.72;12617877;23;20348;-86
2022/10/09 21:50:17;;;;;;;7.45;4.20;;;;;;;5.09;100.00;101431.44;12730063;22;20016;-89
2022/10/09 21:55:33;;;;;;;10.25;5.05;;;;;;;5.32;100.00;101492.00;12648997;22;20355;-87
2022/10/09 22:07:24;;;;;;;10.27;4.85;;;;;;;5.10;100.00;101479.50;12731237;22;20017;-88
2022/10/09 22:13:12;;;;;;;;;;;;;;;;;;;;;
2022/10/09 22:19:18;;;;;;;9.38;4.38;;;;;;;3.81;100.00;101254.66;12625706;23;20030;-88
2022/10/09 22:25:20;;;;;;;9.93;4.50;;;;;;;5.40;100.00;101489.09;12427751;23;20030;-88
2022/10/09 22:30:32;;;;;;;9.45;5.45;;;;;;;4.57;100.00;101354.63;12414995;23;20029;-88
2022/10/09 22:35:48;;;;;;;7.82;5.50;;;;;;;4.76;100.00;101421.22;12486607;23;20028;-88
2022/10/09 22:41:02;;;;;;;15.73;5.20;;;;;;;4.10;100.00;101297.16;12394727;23;20034;-88
2022/10/09 22:46:13;;;;;;;5.85;4.40;;;;;;;5.22;100.00;101447.84;12556749;23;20007;-86
2022/10/09 22:51:22;;;;;;;12.75;4.97;;;;;;;6.25;100.00;101622.59;12441783;23;20054;-87
2022/10/09 22:57:04;;;;;;;7.80;5.55;;;;;;;6.35;100.00;101589.41;12434785;23;20025;-87
2022/10/09 23:02:17;;;;;;;9.23;4.68;;;;;;;5.89;100.00;101529.97;12592688;23;20020;-86
2022/10/09 23:08:04;;;;;;;7.78;4.80;;;;;;;6.45;100.00;101585.19;12433143;23;20012;-86
2022/10/09 23:14:13;;;;;;;9.00;4.57;;;;;;;4.50;100.00;101280.97;12450651;23;20068;-86
2022/10/09 23:19:33;;;;;;;9.23;4.57;;;;;;;4.83;100.00;101367.53;12365732;23;20489;-87
2022/10/09 23:24:34;;;;;;;10.75;5.10;;;;;;;5.75;100.00;101478.03;12710230;23;20017;-88
2022/10/09 23:29:35;;;;;;;9.95;4.55;;;;;;;5.17;100.00;101373.94;12733209;23;20024;-87
2022/10/09 23:34:35;;;;;;;6.45;4.13;;;;;;;5.01;100.00;101320.56;12731605;23;20012;-88
2022/10/09 23:40:07;;;;;;;8.68;4.43;;;;;;;4.03;100.00;101187.28;12675059;23;20044;-86
2022/10/09 23:45:19;;;;;;;16.17;6.65;;;;;;;5.79;100.00;101487.50;12514107;23;20114;-87
2022/10/09 23:50:32;;;;;;;12.88;4.95;;;;;;;5.42;100.00;101391.41;12671958;23;20178;-86
2022/10/09 23:55:38;;;;;;;9.13;4.47;;;;;;;5.37;100.00;101440.31;12653239;23;20009;-87
